Time;durP1;ratioP1;P1;durP2;ratioP2;P2;SDS_P1;SDS_P2;PMS_P1;PMS_P2;Temp;Humidity;BMP_temperature;BMP_pressure;BME280_temperature;BME280_humidity;BME280_pressure;Samples;Min_cycle;Max_cycle;Signal;HPM_P1;HPM_P2
2023/05/01 00:01:29;;;;;;;5.50;4.82;;;;;12.30;98542.00;;;;5055136;28;20049;-55
2023/05/01 00:03:55;;;;;;;5.75;4.78;;;;;12.30;98542.00;;;;5054621;28;20096;-57
2023/05/01 00:06:22;;;;;;;5.07;4.57;;;;;12.20;98535.00;;;;5055018;28;20048;-55
2023/05/01 00:08:49;;;;;;;5.18;4.63;;;;;12.20;98541.00;;;;5054694;28;20077;-55
2023/05/01 00:11:16;;;;;;;5.22;4.45;;;;;12.00;98530.00;;;;5054814;28;20094;-59
2023/05/01 00:13:42;;;;;;;5.38;4.72;;;;;11.90;98525.00;;;;5053387;28;20041;-57
2023/05/01 00:16:10;;;;;;;7.05;4.53;;;;;11.80;98525.00;;;;5054813;28;20040;-56
2023/05/01 00:18:37;;;;;;;7.15;4.72;;;;;11.80;98521.00;;;;5054436;28;20045;-56
2023/05/01 00:21:04;;;;;;;6.10;4.60;;;;;11.70;98523.00;;;;5054826;28;20052;-60
2023/05/01 00:23:30;;;;;;;6.32;4.70;;;;;11.80;98522.00;;;;5054450;28;20045;-56
2023/05/01 00:25:57;;;;;;;6.18;4.97;;;;;11.70;98519.00;;;;5054523;28;20045;-54
2023/05/01 00:28:23;;;;;;;5.68;4.82;;;;;11.70;98513.00;;;;5053192;28;20056;-57
2023/05/01 00:30:51;;;;;;;9.25;5.25;;;;;11.80;98509.00;;;;5053259;28;20087;-57
2023/05/01 00:33:17;;;;;;;5.50;4.95;;;;;11.80;98506.00;;;;5054306;28;20041;-56
2023/05/01 00:35:44;;;;;;;8.02;5.43;;;;;11.90;98507.00;;;;5054276;28;20049;-55
2023/05/01 00:38:11;;;;;;;7.35;5.03;;;;;12.00;98499.00;;;;5054180;28;20092;-56
2023/05/01 00:40:45;;;;;;;6.57;5.20;;;;;12.00;98503.00;;;;5053117;28;20049;-56
2023/05/01 00:43:12;;;;;;;10.10;5.45;;;;;11.90;98498.00;;;;5054087;28;20037;-55
2023/05/01 00:45:42;;;;;;;8.68;5.20;;;;;11.80;98496.00;;;;5052663;28;20053;-58
2023/05/01 00:48:09;;;;;;;8.13;5.45;;;;;11.70;98493.00;;;;5054271;28;20059;-55
2023/05/01 00:50:36;;;;;;;8.15;5.68;;;;;11.60;98487.00;;;;5052464;28;20548;-54
2023/05/01 00:53:03;;;;;;;8.90;5.50;;;;;11.70;98490.00;;;;5052359;28;20071;-57
2023/05/01 00:55:30;;;;;;;8.57;5.50;;;;;11.70;98482.00;;;;5053953;28;20087;-56
2023/05/01 00:57:57;;;;;;;7.43;5.28;;;;;11.70;98476.00;;;;5054059;28;20449;-55
2023/05/01 01:00:24;;;;;;;5.47;4.72;;;;;11.60;98480.00;;;;5052619;28;20045;-56
2023/05/01 01:02:51;;;;;;;9.70;5.80;;;;;11.60;98477.00;;;;5052470;28;20045;-54
2023/05/01 01:05:20;;;;;;;7.25;5.82;;;;;11.60;98475.00;;;;5053865;28;20455;-57
2023/05/01 01:07:54;;;;;;;7.90;5.68;;;;;11.70;98474.00;;;;5052552;28;20143;-57
2023/05/01 01:10:51;;;;;;;5.38;4.82;;;;;11.80;98465.00;;;;5053547;28;20075;-54
2023/05/01 01:14:00;;;;;;;6.25;5.15;;;;;11.90;98460.00;;;;5058147;28;20139;-55
2023/05/01 01:16:40;;;;;;;7.00;4.68;;;;;11.80;98470.00;;;;5054359;28;20059;-56
2023/05/01 01:19:28;;;;;;;6.57;5.03;;;;;11.60;98455.00;;;;5053375;28;20049;-55
2023/05/01 01:22:06;;;;;;;7.88;4.45;;;;;11.40;98451.00;;;;5052106;28;20494;-57
2023/05/01 01:24:58;;;;;;;5.38;4.88;;;;;11.30;98449.00;;;;5053483;28;20048;-56
2023/05/01 01:27:54;;;;;;;8.10;5.05;;;;;11.20;98455.00;;;;5051994;28;20048;-57
2023/05/01 01:30:51;;;;;;;6.03;5.15;;;;;11.20;98443.00;;;;5053162;28;20567;-56
2023/05/01 01:33:53;;;;;;;5.07;4.50;;;;;11.30;98453.00;;;;5053191;28;20124;-58
2023/05/01 01:36:33;;;;;;;5.63;5.03;;;;;11.50;98454.00;;;;5053295;28;20044;-55
2023/05/01 01:39:23;;;;;;;6.57;4.93;;;;;11.30;98445.00;;;;5051684;28;20056;-54
2023/05/01 01:41:52;;;;;;;6.68;5.07;;;;;11.30;98444.00;;;;5053207;28;20056;-54
2023/05/01 01:44:42;;;;;;;7.60;5.22;;;;;11.20;98443.00;;;;5051633;28;20040;-56
2023/05/01 01:47:12;;;;;;;7.72;5.45;;;;;11.20;98442.00;;;;5051587;28;20053;-58
2023/05/01 01:49:44;;;;;;;7.30;4.93;;;;;11.20;98444.00;;;;5052766;28;20480;-58
2023/05/01 01:52:14;;;;;;;6.15;5.38;;;;;11.30;98442.00;;;;5052919;28;20422;-56
2023/05/01 01:54:47;;;;;;;6.55;5.13;;;;;11.30;98436.00;;;;5052795;28;20060;-55
2023/05/01 01:57:17;;;;;;;8.25;5.88;;;;;11.40;98432.00;;;;5053009;28;20379;-62
2023/05/01 01:59:47;;;;;;;8.32;4.88;;;;;11.40;98437.00;;;;5051288;28;20045;-61
2023/05/01 02:02:17;;;;;;;5.57;4.35;;;;;11.50;98429.00;;;;5051253;28;20551;-61
2023/05/01 02:04:45;;;;;;;5.90;4.70;;;;;11.40;98439.00;;;;5052925;28;20128;-61
2023/05/01 02:07:13;;;;;;;5.00;4.60;;;;;11.30;98435.00;;;;5051444;28;20502;-60
2023/05/01 02:09:41;;;;;;;5.65;5.15;;;;;11.10;98431.00;;;;5051005;28;20167;-61
2023/05/01 02:12:09;;;;;;;7.65;4.93;;;;;11.00;98424.00;;;;5051320;28;20582;-59
2023/05/01 02:14:37;;;;;;;5.97;4.78;;;;;10.90;98428.00;;;;5052570;28;20045;-61
2023/05/01 02:17:05;;;;;;;6.03;4.93;;;;;10.90;98424.00;;;;5051191;28;20055;-60
2023/05/01 02:19:32;;;;;;;6.07;4.43;;;;;10.90;98422.00;;;;5050883;28;20048;-60
2023/05/01 02:22:00;;;;;;;5.50;4.60;;;;;10.90;98417.00;;;;5051048;28;20053;-60
2023/05/01 02:24:28;;;;;;;6.18;4.50;;;;;10.90;98419.00;;;;5052178;28;20045;-60
2023/05/01 02:27:06;;;;;;;7.90;4.05;;;;;10.90;98418.00;;;;5051310;28;20084;-60
2023/05/01 02:29:33;;;;;;;4.95;4.10;;;;;10.90;98417.00;;;;5050542;28;20048;-60
2023/05/01 02:31:59;;;;;;;4.00;3.55;;;;;10.90;98417.00;;;;5052309;28;20045;-54
2023/05/01 02:34:27;;;;;;;6.40;4.85;;;;;10.90;98412.00;;;;5054496;28;20045;-55
2023/05/01 02:36:55;;;;;;;4.53;4.03;;;;;10.90;98412.00;;;;5052661;28;20079;-54
2023/05/01 02:39:21;;;;;;;5.80;4.18;;;;;11.00;98415.00;;;;5052188;28;20052;-54
2023/05/01 02:41:51;;;;;;;5.45;4.57;;;;;11.10;98411.00;;;;5052319;28;20094;-54
2023/05/01 02:44:19;;;;;;;4.78;4.28;;;;;11.20;98409.00;;;;5054261;28;20037;-58
2023/05/01 02:46:48;;;;;;;8.05;4.60;;;;;11.20;98408.00;;;;5053159;28;20047;-54
2023/05/01 02:49:16;;;;;;;5.05;4.57;;;;;11.30;98409.00;;;;5051984;28;20048;-54
2023/05/01 02:51:45;;;;;;;6.15;4.63;;;;;11.20;98407.00;;;;5052667;28;20049;-56
2023/05/01 02:54:12;;;;;;;5.93;4.65;;;;;11.20;98412.00;;;;5051433;28;20515;-55
2023/05/01 02:56:39;;;;;;;7.25;5.40;;;;;11.20;98401.00;;;;5051188;28;20079;-55
2023/05/01 02:59:05;;;;;;;6.10;4.22;;;;;11.10;98405.00;;;;5052398;28;20506;-55
2023/05/01 03:01:32;;;;;;;4.47;4.07;;;;;11.00;98410.00;;;;5051736;28;20036;-56
2023/05/01 03:03:59;;;;;;;7.70;4.43;;;;;10.90;98403.00;;;;5055579;28;20037;-58
2023/05/01 03:06:27;;;;;;;5.20;4.70;;;;;10.80;98399.00;;;;5056705;28;20053;-55
2023/05/01 03:08:54;;;;;;;5.70;4.22;;;;;10.70;98395.00;;;;5056542;28;20045;-55
2023/05/01 03:11:21;;;;;;;6.18;4.57;;;;;10.70;98398.00;;;;5056593;28;20445;-58
2023/05/01 03:13:47;;;;;;;13.43;5.45;;;;;10.70;98392.00;;;;5038177;28;20057;-56
2023/05/01 03:16:14;;;;;;;5.40;4.00;;;;;10.70;98398.00;;;;5054897;28;20049;-55
2023/05/01 03:18:41;;;;;;;6.65;4.25;;;;;10.70;98396.00;;;;5055915;28;20045;-55
2023/05/01 03:21:07;;;;;;;6.30;4.95;;;;;10.60;98391.00;;;;5055945;28;20060;-58
2023/05/01 03:23:34;;;;;;;5.00;4.28;;;;;10.60;98388.00;;;;5054242;28;20064;-55
2023/05/01 03:26:00;;;;;;;5.05;4.13;;;;;10.60;98382.00;;;;5055652;28;20049;-55
2023/05/01 03:28:27;;;;;;;5.88;4.57;;;;;10.60;98387.00;;;;5054210;28;20049;-59
2023/05/01 03:30:54;;;;;;;4.38;3.97;;;;;10.60;98381.00;;;;5040252;28;20445;-57
2023/05/01 03:33:21;;;;;;;5.03;4.53;;;;;10.60;98387.00;;;;5034281;28;20047;-55
2023/05/01 03:35:57;;;;;;;6.22;4.63;;;;;10.60;98389.00;;;;5034205;28;20435;-59
2023/05/01 03:38:25;;;;;;;6.95;4.05;;;;;10.50;98380.00;;;;5035480;28;20406;-57
2023/05/01 03:41:09;;;;;;;8.07;5.00;;;;;10.60;98380.00;;;;5035564;28;20057;-56
2023/05/01 03:43:54;;;;;;;5.18;4.10;;;;;10.70;98376.00;;;;5035207;28;20107;-55
2023/05/01 03:46:34;;;;;;;6.53;4.10;;;;;10.80;98371.00;;;;5033922;28;20049;-55
2023/05/01 03:49:01;;;;;;;6.50;4.50;;;;;10.80;98374.00;;;;5033545;28;20050;-56
2023/05/01 03:51:33;;;;;;;6.22;4.53;;;;;10.80;98375.00;;;;5034200;28;20145;-55
2023/05/01 03:53:59;;;;;;;5.13;4.57;;;;;10.80;98368.00;;;;5033791;28;20133;-55
2023/05/01 03:56:34;;;;;;;7.18;4.82;;;;;10.80;98372.00;;;;5033869;28;20097;-55
2023/05/01 03:59:02;;;;;;;5.22;4.60;;;;;10.90;98369.00;;;;5033650;28;20414;-56
2023/05/01 04:01:29;;;;;;;7.65;4.85;;;;;10.90;98374.00;;;;5033751;28;20042;-56
2023/05/01 04:03:55;;;;;;;5.15;4.40;;;;;10.90;98376.00;;;;5033296;28;20045;-56
2023/05/01 04:06:22;;;;;;;4.82;4.10;;;;;11.00;98372.00;;;;5033585;28;20049;-56
2023/05/01 04:08:49;;;;;;;5.47;4.43;;;;;11.10;98374.00;;;;5033111;28;20163;-55
2023/05/01 04:11:15;;;;;;;4.82;4.32;;;;;11.10;98370.00;;;;5033800;28;20092;-60
2023/05/01 04:13:43;;;;;;;4.93;4.45;;;;;11.10;98384.00;;;;5033317;28;20049;-59
2023/05/01 04:16:09;;;;;;;8.45;4.72;;;;;10.90;98374.00;;;;5032402;28;20053;-59
2023/05/01 04:18:36;;;;;;;5.45;4.78;;;;;10.80;98372.00;;;;5033223;28;20041;-60
2023/05/01 04:21:03;;;;;;;5.20;4.50;;;;;10.80;98368.00;;;;5034442;28;20091;-60
2023/05/01 04:23:30;;;;;;;8.00;5.05;;;;;10.60;98372.00;;;;5033925;28;20101;-59
2023/05/01 04:25:58;;;;;;;8.18;4.90;;;;;10.50;98364.00;;;;5034138;28;20140;-60
2023/05/01 04:28:26;;;;;;;7.22;4.95;;;;;10.60;98362.00;;;;5033737;28;20056;-60
2023/05/01 04:30:53;;;;;;;5.15;4.38;;;;;10.70;98367.00;;;;5033868;28;20049;-60
2023/05/01 04:33:19;;;;;;;5.90;4.13;;;;;10.70;98368.00;;;;5033608;28;20046;-59
2023/05/01 04:35:46;;;;;;;6.78;4.40;;;;;10.60;98369.00;;;;5033156;28;20100;-59
2023/05/01 04:38:12;;;;;;;6.78;4.57;;;;;10.60;98366.00;;;;5033008;28;20069;-60
2023/05/01 04:40:40;;;;;;;6.72;4.63;;;;;10.70;98366.00;;;;5033177;28;20088;-59
2023/05/01 04:43:06;;;;;;;7.07;4.60;;;;;10.70;98364.00;;;;5032755;28;20065;-60
2023/05/01 04:45:38;;;;;;;6.00;4.75;;;;;10.70;98369.00;;;;5034288;28;20136;-59
2023/05/01 04:48:05;;;;;;;5.50;4.50;;;;;10.90;98371.00;;;;5033379;28;20057;-62
2023/05/01 04:50:32;;;;;;;5.88;4.68;;;;;11.00;98369.00;;;;5034762;28;20398;-59
2023/05/01 04:52:59;;;;;;;6.47;4.70;;;;;11.10;98377.00;;;;5033508;28;20119;-61
2023/05/01 04:55:25;;;;;;;5.10;4.65;;;;;11.20;98370.00;;;;5039092;28;20056;-61
2023/05/01 04:58:04;;;;;;;8.65;5.15;;;;;11.40;98377.00;;;;5052651;28;20100;-61
2023/05/01 05:00:33;;;;;;;5.72;4.65;;;;;11.50;98379.00;;;;5052681;28;20049;-60
2023/05/01 05:03:00;;;;;;;7.30;4.82;;;;;11.50;98377.00;;;;5052487;28;20421;-61
2023/05/01 05:05:26;;;;;;;5.45;4.65;;;;;11.60;98370.00;;;;5052226;28;20056;-60
2023/05/01 05:07:53;;;;;;;7.70;5.47;;;;;11.60;98378.00;;;;5052388;28;20067;-60
2023/05/01 05:10:22;;;;;;;5.57;4.97;;;;;11.60;98380.00;;;;5053738;28;20132;-59
2023/05/01 05:13:02;;;;;;;5.00;4.50;;;;;11.50;98373.00;;;;5052610;28;20045;-59
2023/05/01 05:15:29;;;;;;;6.20;4.80;;;;;11.40;98379.00;;;;5057623;28;20120;-59
2023/05/01 05:17:56;;;;;;;7.95;4.90;;;;;11.40;98371.00;;;;5063256;28;20053;-60
2023/05/01 05:20:23;;;;;;;8.65;5.32;;;;;11.40;98376.00;;;;5061046;28;20044;-59
2023/05/01 05:22:49;;;;;;;8.88;5.25;;;;;11.40;98376.00;;;;5035857;28;20064;-60
2023/05/01 05:25:21;;;;;;;4.32;3.92;;;;;11.40;98377.00;;;;5036352;28;20071;-60
2023/05/01 05:27:48;;;;;;;10.77;8.07;;;;;11.50;98377.00;;;;5051280;28;20095;-60
2023/05/01 05:30:15;;;;;;;5.55;4.85;;;;;11.60;98379.00;;;;5051558;28;20135;-60
2023/05/01 05:32:43;;;;;;;11.82;8.60;;;;;11.60;98380.00;;;;5051890;28;20049;-61
2023/05/01 05:35:10;;;;;;;6.00;4.85;;;;;11.70;98374.00;;;;5051932;28;20045;-60
2023/05/01 05:37:37;;;;;;;7.60;5.05;;;;;11.70;98373.00;;;;5053442;28;20049;-61
2023/05/01 05:40:04;;;;;;;7.82;4.50;;;;;11.80;98373.00;;;;5051708;28;20073;-60
2023/05/01 05:42:38;;;;;;;7.05;4.65;;;;;12.00;98378.00;;;;5051759;28;20413;-55
2023/05/01 05:45:06;;;;;;;8.43;5.43;;;;;12.10;98366.00;;;;5051682;28;20045;-55
2023/05/01 05:47:36;;;;;;;9.45;7.03;;;;;12.30;98371.00;;;;5051658;28;20136;-56
2023/05/01 05:50:04;;;;;;;7.68;5.00;;;;;12.40;98370.00;;;;5051295;28;20092;-57
2023/05/01 05:52:31;;;;;;;4.97;4.28;;;;;12.60;98368.00;;;;5051585;28;20436;-55
2023/05/01 05:55:00;;;;;;;5.90;4.78;;;;;12.70;98365.00;;;;5051540;28;20464;-56
2023/05/01 05:57:26;;;;;;;8.80;5.15;;;;;12.90;98377.00;;;;5051644;28;20512;-56
2023/05/01 05:59:53;;;;;;;9.15;5.32;;;;;13.00;98366.00;;;;5034842;28;20144;-54
2023/05/01 06:02:23;;;;;;;6.63;5.38;;;;;13.00;98375.00;;;;5051609;28;20052;-56
2023/05/01 06:04:50;;;;;;;5.65;4.80;;;;;13.10;98378.00;;;;5051398;28;20080;-56
2023/05/01 06:07:21;;;;;;;6.70;4.50;;;;;13.30;98365.00;;;;5051353;28;20059;-59
2023/05/01 06:09:47;;;;;;;6.70;4.80;;;;;13.40;98366.00;;;;5052240;28;20064;-55
2023/05/01 06:12:15;;;;;;;5.75;4.10;;;;;13.60;98371.00;;;;5052457;28;20478;-55
2023/05/01 06:14:41;;;;;;;6.35;5.07;;;;;13.70;98357.00;;;;5051154;28;20080;-56
2023/05/01 06:17:08;;;;;;;6.95;5.25;;;;;13.80;98363.00;;;;5051153;28;20068;-56
2023/05/01 06:19:36;;;;;;;4.88;4.40;;;;;13.90;98360.00;;;;5050884;28;20139;-56
2023/05/01 06:22:07;;;;;;;6.85;5.22;;;;;13.90;98355.00;;;;5051918;28;20072;-58
2023/05/01 06:24:40;;;;;;;4.93;4.27;;;;;14.00;98366.00;;;;5051736;28;20136;-56
2023/05/01 06:27:08;;;;;;;6.18;4.47;;;;;14.00;98370.00;;;;5050817;28;20049;-54
2023/05/01 06:29:35;;;;;;;7.15;4.38;;;;;13.90;98370.00;;;;5050953;28;20055;-55
2023/05/01 06:32:02;;;;;;;4.18;3.70;;;;;13.90;98378.00;;;;5051072;28;20094;-56
2023/05/01 06:34:30;;;;;;;7.20;4.03;;;;;13.90;98374.00;;;;5050895;28;20137;-57
2023/05/01 06:36:57;;;;;;;5.00;4.50;;;;;13.90;98369.00;;;;5050915;28;20194;-57
2023/05/01 06:39:24;;;;;;;6.72;4.50;;;;;13.90;98372.00;;;;5049710;28;20052;-54
2023/05/01 06:41:51;;;;;;;4.30;3.90;;;;;14.00;98377.00;;;;5050563;28;20095;-55
2023/05/01 06:44:28;;;;;;;5.32;3.95;;;;;14.00;98376.00;;;;5050427;28;20094;-57
2023/05/01 06:47:00;;;;;;;6.20;4.07;;;;;14.00;98378.00;;;;5050966;28;20136;-58
2023/05/01 06:49:27;;;;;;;5.22;3.75;;;;;14.10;98372.00;;;;5050399;28;20095;-56
2023/05/01 06:51:53;;;;;;;4.78;4.35;;;;;14.20;98371.00;;;;5050717;28;20051;-55
2023/05/01 06:54:20;;;;;;;4.82;4.28;;;;;14.30;98374.00;;;;5051991;28;20502;-57
2023/05/01 06:56:46;;;;;;;5.35;4.32;;;;;14.50;98378.00;;;;5050618;28;20045;-55
2023/05/01 06:59:13;;;;;;;5.40;3.85;;;;;14.70;98383.00;;;;5051701;28;20079;-55
2023/05/01 07:01:40;;;;;;;4.65;4.03;;;;;14.80;98380.00;;;;5051944;28;20044;-55
2023/05/01 07:04:06;;;;;;;4.75;3.72;;;;;15.00;98384.00;;;;5050355;28;20049;-57
2023/05/01 07:06:33;;;;;;;5.22;3.90;;;;;15.00;98391.00;;;;5051879;28;20493;-56
2023/05/01 07:09:00;;;;;;;6.38;4.28;;;;;15.10;98389.00;;;;5051524;28;20477;-55
2023/05/01 07:11:26;;;;;;;4.70;4.20;;;;;15.20;98384.00;;;;5051934;28;20045;-57
2023/05/01 07:13:53;;;;;;;4.15;3.75;;;;;15.20;98387.00;;;;5051647;28;20048;-57
2023/05/01 07:16:20;;;;;;;6.93;5.22;;;;;15.00;98378.00;;;;5051620;28;20383;-57
2023/05/01 07:18:46;;;;;;;5.75;4.20;;;;;14.90;98383.00;;;;5051678;28;20045;-59
2023/05/01 07:21:13;;;;;;;4.32;3.42;;;;;14.80;98376.00;;;;5051854;28;20052;-58
2023/05/01 07:23:40;;;;;;;3.80;3.40;;;;;14.90;98375.00;;;;5051820;28;20106;-59
2023/05/01 07:26:06;;;;;;;4.25;3.50;;;;;14.90;98370.00;;;;5051410;28;20048;-57
2023/05/01 07:28:33;;;;;;;4.32;3.25;;;;;15.00;98366.00;;;;5050130;28;20049;-59
2023/05/01 07:31:00;;;;;;;4.72;3.90;;;;;15.10;98369.00;;;;5051685;28;20440;-56
2023/05/01 07:33:27;;;;;;;3.70;3.33;;;;;15.20;98368.00;;;;5051865;28;20503;-59
2023/05/01 07:35:53;;;;;;;9.30;7.25;;;;;15.20;98364.00;;;;5051670;28;20518;-57
2023/05/01 07:38:20;;;;;;;9.85;5.50;;;;;15.40;98359.00;;;;5051696;28;20045;-57
2023/05/01 07:40:46;;;;;;;3.83;3.40;;;;;15.30;98363.00;;;;5051254;28;20386;-56
2023/05/01 07:43:13;;;;;;;3.63;3.20;;;;;15.40;98364.00;;;;5053248;28;20390;-56
2023/05/01 07:45:41;;;;;;;3.85;2.97;;;;;15.40;98368.00;;;;5055223;28;20041;-59
2023/05/01 07:48:08;;;;;;;4.38;3.50;;;;;15.50;98370.00;;;;5052497;28;20056;-57
2023/05/01 07:50:35;;;;;;;7.72;3.03;;;;;15.70;98368.00;;;;5054536;28;20041;-57
2023/05/01 07:53:01;;;;;;;4.00;3.60;;;;;15.80;98374.00;;;;5055527;28;20111;-56
2023/05/01 07:55:28;;;;;;;5.07;3.90;;;;;15.90;98360.00;;;;5055888;28;20098;-60
2023/05/01 07:57:54;;;;;;;6.03;4.47;;;;;16.00;98371.00;;;;5057526;28;20037;-59
2023/05/01 08:00:21;;;;;;;3.70;3.35;;;;;16.00;98363.00;;;;5056584;28;20116;-58
2023/05/01 08:02:50;;;;;;;3.30;2.97;;;;;16.10;98358.00;;;;5059468;28;20045;-61
2023/05/01 08:05:17;;;;;;;3.75;2.90;;;;;16.10;98355.00;;;;5058858;28;20125;-62
2023/05/01 08:07:44;;;;;;;2.92;2.63;;;;;16.30;98368.00;;;;5058933;28;20102;-61
2023/05/01 08:10:10;;;;;;;3.13;2.83;;;;;16.60;98365.00;;;;5058731;28;20571;-60
2023/05/01 08:12:37;;;;;;;3.30;3.00;;;;;16.60;98370.00;;;;5058188;28;20055;-61
2023/05/01 08:15:04;;;;;;;4.88;2.70;;;;;16.60;98365.00;;;;5059729;28;20517;-61
2023/05/01 08:17:30;;;;;;;6.07;3.08;;;;;17.00;98360.00;;;;5058425;28;20056;-60
2023/05/01 08:19:59;;;;;;;6.07;3.40;;;;;17.20;98366.00;;;;5059144;28;20096;-61
2023/05/01 08:22:25;;;;;;;4.90;2.90;;;;;17.30;98363.00;;;;5058261;28;20052;-61
2023/05/01 08:24:52;;;;;;;3.50;2.70;;;;;17.00;98357.00;;;;5058595;28;20041;-62
2023/05/01 08:27:18;;;;;;;3.70;2.88;;;;;17.10;98356.00;;;;5057699;28;20750;-61
2023/05/01 08:29:45;;;;;;;5.85;2.85;;;;;17.20;98358.00;;;;5036288;28;20064;-61
2023/05/01 08:32:13;;;;;;;3.75;2.42;;;;;17.50;98364.00;;;;5035255;28;20046;-61
2023/05/01 08:34:40;;;;;;;2.78;2.58;;;;;17.50;98358.00;;;;5034813;28;20046;-60
2023/05/01 08:37:06;;;;;;;3.65;3.00;;;;;17.40;98355.00;;;;5035668;28;20192;-60
2023/05/01 08:39:33;;;;;;;3.17;2.63;;;;;17.20;98356.00;;;;5035071;28;20053;-61
2023/05/01 08:42:00;;;;;;;4.50;2.65;;;;;17.10;98353.00;;;;5035093;28;20049;-60
2023/05/01 08:44:27;;;;;;;2.90;2.60;;;;;17.00;98357.00;;;;5037490;28;20080;-60
2023/05/01 08:47:08;;;;;;;4.00;2.67;;;;;17.00;98361.00;;;;5038227;28;20041;-60
2023/05/01 08:49:37;;;;;;;3.00;2.80;;;;;17.00;98367.00;;;;5038177;28;20049;-61
2023/05/01 08:52:05;;;;;;;3.05;2.67;;;;;16.90;98354.00;;;;5052192;28;20048;-60
2023/05/01 08:54:33;;;;;;;2.95;2.55;;;;;16.90;98353.00;;;;5054171;28;20067;-60
2023/05/01 08:57:04;;;;;;;4.85;2.70;;;;;17.10;98361.00;;;;5052924;28;20501;-60
2023/05/01 08:59:34;;;;;;;3.67;2.40;;;;;17.30;98344.00;;;;5053595;28;20048;-61
2023/05/01 09:02:04;;;;;;;2.85;2.60;;;;;17.50;98354.00;;;;5053179;28;20037;-62
2023/05/01 09:04:32;;;;;;;2.53;2.30;;;;;17.60;98343.00;;;;5052387;28;20580;-62
2023/05/01 09:07:00;;;;;;;4.00;3.28;;;;;17.90;98346.00;;;;5053601;28;20478;-60
2023/05/01 09:09:27;;;;;;;3.20;2.83;;;;;18.20;98351.00;;;;5053604;28;20040;-58
2023/05/01 09:12:19;;;;;;;2.78;2.47;;;;;18.30;98344.00;;;;5052727;28;20417;-56
2023/05/01 09:14:45;;;;;;;3.50;2.72;;;;;18.30;98344.00;;;;5053675;28;20045;-60
2023/05/01 09:17:12;;;;;;;2.90;2.60;;;;;18.30;98344.00;;;;5053992;28;20037;-62
2023/05/01 09:19:39;;;;;;;3.65;2.97;;;;;18.30;98340.00;;;;5053740;28;20102;-60
2023/05/01 09:22:08;;;;;;;5.13;4.43;;;;;18.20;98341.00;;;;5056265;28;20041;-62
2023/05/01 09:24:34;;;;;;;4.03;3.40;;;;;18.40;98344.00;;;;5060652;28;20087;-62
2023/05/01 09:27:01;;;;;;;4.82;2.67;;;;;18.40;98349.00;;;;5057768;28;20049;-61
2023/05/01 09:29:42;;;;;;;3.30;2.42;;;;;18.20;98344.00;;;;5053968;28;20045;-62
2023/05/01 09:32:26;;;;;;;3.92;2.63;;;;;18.20;98338.00;;;;5053528;28;20045;-62
2023/05/01 09:35:08;;;;;;;3.58;2.53;;;;;18.30;98336.00;;;;5053646;28;20421;-61
2023/05/01 09:37:35;;;;;;;3.65;2.70;;;;;18.60;98332.00;;;;5052465;28;20052;-60
2023/05/01 09:40:08;;;;;;;7.32;2.50;;;;;18.90;98340.00;;;;5053060;28;20041;-59
2023/05/01 09:42:48;;;;;;;3.70;2.57;;;;;19.10;98339.00;;;;5053371;28;20052;-63
2023/05/01 09:45:16;;;;;;;3.78;2.70;;;;;19.20;98329.00;;;;5053070;28;20113;-62
2023/05/01 09:47:46;;;;;;;2.65;2.45;;;;;19.20;98335.00;;;;5053229;28;20071;-57
2023/05/01 09:50:30;;;;;;;4.38;2.90;;;;;19.30;98332.00;;;;5051623;28;20044;-58
2023/05/01 09:52:56;;;;;;;3.42;2.33;;;;;19.40;98335.00;;;;5052875;28;20064;-58
2023/05/01 09:55:23;;;;;;;3.70;2.60;;;;;19.40;98335.00;;;;5052910;28;20448;-58
2023/05/01 09:57:51;;;;;;;3.53;3.22;;;;;19.70;98342.00;;;;5052997;28;20057;-57
2023/05/01 10:00:20;;;;;;;4.00;2.58;;;;;19.90;98337.00;;;;5052714;28;20045;-57
2023/05/01 10:02:48;;;;;;;3.83;2.53;;;;;19.90;98337.00;;;;5052718;28;20394;-58
2023/05/01 10:05:15;;;;;;;4.70;2.70;;;;;20.10;98335.00;;;;5052832;28;20198;-60
2023/05/01 10:08:04;;;;;;;2.22;2.08;;;;;20.10;98337.00;;;;5052975;28;20052;-57
2023/05/01 10:10:31;;;;;;;2.65;2.45;;;;;19.80;98340.00;;;;5053097;28;20474;-61
2023/05/01 10:13:13;;;;;;;3.63;2.40;;;;;19.50;98340.00;;;;5051930;28;20532;-62
2023/05/01 10:15:39;;;;;;;2.70;2.47;;;;;19.60;98331.00;;;;5052780;28;20041;-59
2023/05/01 10:18:09;;;;;;;3.67;2.47;;;;;19.90;98334.00;;;;5053020;28;20048;-57
2023/05/01 10:20:35;;;;;;;3.22;2.88;;;;;20.10;98335.00;;;;5052506;28;20095;-58
2023/05/01 10:23:02;;;;;;;4.40;2.70;;;;;20.20;98336.00;;;;5052969;28;20045;-57
2023/05/01 10:25:30;;;;;;;3.92;3.03;;;;;20.50;98335.00;;;;5047209;28;20041;-61
2023/05/01 10:27:58;;;;;;;6.38;3.38;;;;;20.90;98339.00;;;;5033146;28;20599;-59
2023/05/01 10:30:25;;;;;;;13.68;8.80;;;;;21.00;98349.00;;;;5032742;28;20053;-59
2023/05/01 10:32:51;;;;;;;7.38;5.57;;;;;21.10;98337.00;;;;5032937;28;20553;-57
2023/05/01 10:35:23;;;;;;;3.55;2.40;;;;;21.10;98335.00;;;;5042869;28;20111;-57
2023/05/01 10:38:08;;;;;;;4.20;2.78;;;;;21.30;98335.00;;;;5033269;28;20103;-58
2023/05/01 10:40:48;;;;;;;3.03;2.72;;;;;21.70;98340.00;;;;5033309;28;20391;-57
2023/05/01 10:43:30;;;;;;;3.28;2.70;;;;;21.90;98338.00;;;;5033069;28;20053;-57
2023/05/01 10:46:09;;;;;;;2.60;2.40;;;;;21.90;98337.00;;;;5032686;28;20091;-58
2023/05/01 10:48:39;;;;;;;3.97;2.78;;;;;22.00;98344.00;;;;5031325;28;20082;-59
2023/05/01 10:51:10;;;;;;;4.70;2.83;;;;;21.80;98344.00;;;;5037449;28;20383;-58
2023/05/01 10:53:38;;;;;;;3.50;2.88;;;;;21.70;98344.00;;;;5052941;28;20132;-56
2023/05/01 10:56:25;;;;;;;6.15;5.10;;;;;21.50;98342.00;;;;5052568;28;20062;-62
2023/05/01 10:58:52;;;;;;;5.18;4.03;;;;;21.30;98336.00;;;;5052365;28;20041;-60
2023/05/01 11:01:28;;;;;;;25.67;16.45;;;;;21.30;98339.00;;;;5052137;28;20494;-60
2023/05/01 11:03:57;;;;;;;10.75;8.27;;;;;21.30;98337.00;;;;5052457;28;20064;-55
2023/05/01 11:06:24;;;;;;;6.70;4.30;;;;;21.40;98343.00;;;;5051322;28;20497;-61
2023/05/01 11:08:51;;;;;;;5.03;4.20;;;;;21.40;98339.00;;;;5053765;28;20049;-59
2023/05/01 11:11:21;;;;;;;7.13;5.10;;;;;21.50;98338.00;;;;5051889;28;20049;-61
2023/05/01 11:14:04;;;;;;;4.43;3.10;;;;;21.50;98342.00;;;;5052980;28;20465;-61
2023/05/01 11:16:44;;;;;;;2.88;2.45;;;;;21.30;98341.00;;;;5052863;28;20437;-62
2023/05/01 11:19:51;;;;;;;5.50;3.72;;;;;21.20;98328.00;;;;5051272;28;20053;-62
2023/05/01 11:22:19;;;;;;;5.57;3.75;;;;;21.20;98337.00;;;;5052590;28;20448;-62
2023/05/01 11:24:46;;;;;;;6.03;4.68;;;;;21.10;98338.00;;;;5054017;28;20045;-62
2023/05/01 11:27:14;;;;;;;6.25;4.80;;;;;21.10;98342.00;;;;5056603;28;20406;-61
2023/05/01 11:29:43;;;;;;;5.43;4.72;;;;;21.30;98336.00;;;;5056816;28;20041;-62
2023/05/01 11:32:15;;;;;;;5.18;3.50;;;;;21.30;98335.00;;;;5056213;28;20398;-62
2023/05/01 11:34:42;;;;;;;5.50;3.70;;;;;21.30;98335.00;;;;5054998;28;20072;-61
2023/05/01 11:37:10;;;;;;;14.00;7.97;;;;;21.50;98330.00;;;;5056230;28;20421;-62
2023/05/01 11:39:37;;;;;;;8.90;6.65;;;;;21.50;98334.00;;;;5055796;28;20409;-62
2023/05/01 11:42:08;;;;;;;5.88;4.53;;;;;21.60;98336.00;;;;5055747;28;20040;-61
2023/05/01 11:44:37;;;;;;;4.43;3.75;;;;;21.70;98339.00;;;;5055675;28;20103;-62
2023/05/01 11:47:06;;;;;;;4.78;3.00;;;;;21.80;98334.00;;;;5055663;28;20041;-61
2023/05/01 11:49:32;;;;;;;7.93;3.10;;;;;21.80;98328.00;;;;5054593;28;20124;-61
2023/05/01 11:51:59;;;;;;;4.03;2.60;;;;;21.80;98330.00;;;;5055438;28;20045;-61
2023/05/01 11:54:26;;;;;;;3.00;2.70;;;;;21.90;98331.00;;;;5056554;28;20052;-62
2023/05/01 11:57:02;;;;;;;3.47;2.90;;;;;21.90;98325.00;;;;5055714;28;20049;-62
2023/05/01 11:59:29;;;;;;;3.75;2.80;;;;;22.10;98327.00;;;;5055961;28;20581;-60
2023/05/01 12:01:57;;;;;;;3.28;2.85;;;;;22.10;98329.00;;;;5055324;28;20083;-62
2023/05/01 12:04:28;;;;;;;4.47;2.85;;;;;22.10;98333.00;;;;5055120;28;20524;-62
2023/05/01 12:06:58;;;;;;;3.28;2.60;;;;;21.90;98322.00;;;;5055247;28;20037;-56
2023/05/01 12:09:26;;;;;;;2.70;2.35;;;;;21.90;98321.00;;;;5055077;28;20049;-54
2023/05/01 12:11:53;;;;;;;3.72;2.67;;;;;22.10;98321.00;;;;5054371;28;20335;-55
2023/05/01 12:14:23;;;;;;;2.92;2.70;;;;;22.10;98319.00;;;;5055019;28;20049;-56
2023/05/01 12:16:50;;;;;;;3.53;2.63;;;;;22.20;98309.00;;;;5055221;28;20037;-56
2023/05/01 12:19:17;;;;;;;2.78;2.55;;;;;22.30;98307.00;;;;5054964;28;20045;-60
2023/05/01 12:21:43;;;;;;;2.72;2.45;;;;;22.50;98310.00;;;;5055687;28;20445;-59
2023/05/01 12:24:17;;;;;;;2.97;2.40;;;;;22.70;98311.00;;;;5055241;28;20060;-59
2023/05/01 12:26:45;;;;;;;17.88;12.65;;;;;23.00;98309.00;;;;5055150;28;20448;-60
2023/05/01 12:29:11;;;;;;;3.58;2.80;;;;;23.20;98311.00;;;;5054851;28;20136;-59
2023/05/01 12:31:46;;;;;;;3.72;2.90;;;;;23.50;98312.00;;;;5055228;28;20045;-59